sensor_id;sensor_type;location;lat;lon;timestamp;pressure;altitude;pressure_sealevel;temperature;humidity
78986;BME280;68384;55.750;48.746;2023-06-10T00:01:02;99072.13;;;12.72;81.15
78986;BME280;68384;55.750;48.746;2023-06-10T00:02:07;99066.06;;;12.71;81.22
78986;BME280;68384;55.750;48.746;2023-06-10T00:03:10;99073.00;;;12.71;81.75
78986;BME280;68384;55.750;48.746;2023-06-10T00:04:16;99079.91;;;12.69;81.87
78986;BME280;68384;55.750;48.746;2023-06-10T00:05:19;99083.31;;;12.66;82.17
78986;BME280;68384;55.750;48.746;2023-06-10T00:06:24;99082.44;;;12.62;82.41
78986;BME280;68384;55.750;48.746;2023-06-10T00:07:27;99083.28;;;12.60;82.44
78986;BME280;68384;55.750;48.746;2023-06-10T00:08:31;99083.22;;;12.57;82.62
78986;BME280;68384;55.750;48.746;2023-06-10T00:09:35;99089.28;;;12.54;82.95
78986;BME280;68384;55.750;48.746;2023-06-10T00:10:40;99086.63;;;12.51;83.07
78986;BME280;68384;55.750;48.746;2023-06-10T00:11:42;99094.44;;;12.51;83.37
78986;BME280;68384;55.750;48.746;2023-06-10T00:12:46;99095.28;;;12.50;83.70
78986;BME280;68384;55.750;48.746;2023-06-10T00:13:49;99076.94;;;12.38;84.16
78986;BME280;68384;55.750;48.746;2023-06-10T00:14:53;99095.22;;;12.47;83.99
78986;BME280;68384;55.750;48.746;2023-06-10T00:15:55;99094.38;;;12.47;84.61
78986;BME280;68384;55.750;48.746;2023-06-10T00:17:00;99093.50;;;12.46;84.46
78986;BME280;68384;55.750;48.746;2023-06-10T00:18:03;99093.50;;;12.46;84.54
78986;BME280;68384;55.750;48.746;2023-06-10T00:19:07;99093.50;;;12.46;84.52
78986;BME280;68384;55.750;48.746;2023-06-10T00:20:12;99090.03;;;12.47;84.76
78986;BME280;68384;55.750;48.746;2023-06-10T00:21:16;99090.91;;;12.46;84.48
78986;BME280;68384;55.750;48.746;2023-06-10T00:22:19;99086.59;;;12.47;84.59
78986;BME280;68384;55.750;48.746;2023-06-10T00:23:24;99093.56;;;12.49;84.55
78986;BME280;68384;55.750;48.746;2023-06-10T00:24:27;99094.38;;;12.48;84.59
78986;BME280;68384;55.750;48.746;2023-06-10T00:25:31;99097.03;;;12.51;84.43
78986;BME280;68384;55.750;48.746;2023-06-10T00:26:34;99096.16;;;12.52;84.34
78986;BME280;68384;55.750;48.746;2023-06-10T00:27:38;99101.34;;;12.51;84.40
78986;BME280;68384;55.750;48.746;2023-06-10T00:28:41;99098.75;;;12.52;84.47
78986;BME280;68384;55.750;48.746;2023-06-10T00:29:47;99107.44;;;12.51;84.40
78986;BME280;68384;55.750;48.746;2023-06-10T00:30:50;99107.47;;;12.54;84.46
78986;BME280;68384;55.750;48.746;2023-06-10T00:31:54;99116.16;;;12.56;84.41
78986;BME280;68384;55.750;48.746;2023-06-10T00:32:59;99114.41;;;12.54;84.77
78986;BME280;68384;55.750;48.746;2023-06-10T00:34:04;99111.75;;;12.52;84.69
78986;BME280;68384;55.750;48.746;2023-06-10T00:35:07;99117.00;;;12.54;84.92
78986;BME280;68384;55.750;48.746;2023-06-10T00:36:13;99120.44;;;12.53;85.07
78986;BME280;68384;55.750;48.746;2023-06-10T00:37:16;99117.81;;;12.51;85.21
78986;BME280;68384;55.750;48.746;2023-06-10T00:38:20;99126.50;;;12.53;85.15
78986;BME280;68384;55.750;48.746;2023-06-10T00:39:22;99126.56;;;12.55;85.24
78986;BME280;68384;55.750;48.746;2023-06-10T00:40:26;99123.03;;;12.53;85.58
78986;BME280;68384;55.750;48.746;2023-06-10T00:41:29;99119.59;;;12.55;85.80
78986;BME280;68384;55.750;48.746;2023-06-10T00:42:33;99118.75;;;12.55;85.65
78986;BME280;68384;55.750;48.746;2023-06-10T00:43:36;99116.16;;;12.56;85.66
78986;BME280;68384;55.750;48.746;2023-06-10T00:44:40;99123.94;;;12.55;86.01
78986;BME280;68384;55.750;48.746;2023-06-10T00:45:44;99112.63;;;12.51;86.38
78986;BME280;68384;55.750;48.746;2023-06-10T00:46:48;99119.59;;;12.54;86.21
78986;BME280;68384;55.750;48.746;2023-06-10T00:47:53;99111.75;;;12.52;86.40
78986;BME280;68384;55.750;48.746;2023-06-10T00:48:59;99118.72;;;12.52;86.47
78986;BME280;68384;55.750;48.746;2023-06-10T00:50:02;99120.44;;;12.51;86.56
78986;BME280;68384;55.750;48.746;2023-06-10T00:51:07;99116.94;;;12.51;86.73
78986;BME280;68384;55.750;48.746;2023-06-10T00:52:13;99111.75;;;12.51;86.80
78986;BME280;68384;55.750;48.746;2023-06-10T00:53:18;99123.88;;;12.50;87.02
78986;BME280;68384;55.750;48.746;2023-06-10T00:54:23;99122.97;;;12.48;86.94
78986;BME280;68384;55.750;48.746;2023-06-10T00:55:28;99125.59;;;12.48;87.27
78986;BME280;68384;55.750;48.746;2023-06-10T00:56:31;99120.34;;;12.45;87.48
78986;BME280;68384;55.750;48.746;2023-06-10T00:57:36;99123.81;;;12.46;87.71
78986;BME280;68384;55.750;48.746;2023-06-10T00:58:40;99122.06;;;12.43;87.77
78986;BME280;68384;55.750;48.746;2023-06-10T00:59:48;99123.78;;;12.41;88.01
78986;BME280;68384;55.750;48.746;2023-06-10T01:00:51;99128.94;;;12.38;88.04
78986;BME280;68384;55.750;48.746;2023-06-10T01:01:56;99126.28;;;12.35;88.34
78986;BME280;68384;55.750;48.746;2023-06-10T01:02:59;99125.41;;;12.35;88.34
78986;BME280;68384;55.750;48.746;2023-06-10T01:04:03;99127.97;;;12.33;88.43
78986;BME280;68384;55.750;48.746;2023-06-10T01:05:07;99126.25;;;12.32;88.43
78986;BME280;68384;55.750;48.746;2023-06-10T01:06:18;99124.47;;;12.30;88.31
78986;BME280;68384;55.750;48.746;2023-06-10T01:07:27;99129.63;;;12.28;88.52
78986;BME280;68384;55.750;48.746;2023-06-10T01:08:35;99132.19;;;12.24;88.39
78986;BME280;68384;55.750;48.746;2023-06-10T01:09:52;99139.09;;;12.23;88.43
78986;BME280;68384;55.750;48.746;2023-06-10T01:11:00;99143.41;;;12.23;88.52
78986;BME280;68384;55.750;48.746;2023-06-10T01:12:08;99146.00;;;12.21;88.15
78986;BME280;68384;55.750;48.746;2023-06-10T01:13:15;99138.16;;;12.18;88.10
78986;BME280;68384;55.750;48.746;2023-06-10T01:14:20;99133.84;;;12.19;87.78
78986;BME280;68384;55.750;48.746;2023-06-10T01:15:24;99144.19;;;12.17;87.91
78986;BME280;68384;55.750;48.746;2023-06-10T01:16:28;99140.75;;;12.20;87.65
78986;BME280;68384;55.750;48.746;2023-06-10T01:17:31;99142.47;;;12.16;87.60
78986;BME280;68384;55.750;48.746;2023-06-10T01:18:36;99139.88;;;12.16;87.43
78986;BME280;68384;55.750;48.746;2023-06-10T01:19:41;99149.44;;;12.19;87.53
78986;BME280;68384;55.750;48.746;2023-06-10T01:20:46;99131.13;;;12.11;87.32
78986;BME280;68384;55.750;48.746;2023-06-10T01:21:54;99143.34;;;12.18;87.34
78986;BME280;68384;55.750;48.746;2023-06-10T01:23:01;99146.84;;;12.20;87.20
78986;BME280;68384;55.750;48.746;2023-06-10T01:24:05;99139.00;;;12.17;87.18
78986;BME280;68384;55.750;48.746;2023-06-10T01:25:14;99136.44;;;12.19;87.00
78986;BME280;68384;55.750;48.746;2023-06-10T01:26:18;99139.94;;;12.21;87.00
78986;BME280;68384;55.750;48.746;2023-06-10T01:27:28;99139.94;;;12.21;86.64
78986;BME280;68384;55.750;48.746;2023-06-10T01:28:36;99131.28;;;12.23;86.66
78986;BME280;68384;55.750;48.746;2023-06-10T01:29:45;99149.50;;;12.23;86.36
78986;BME280;68384;55.750;48.746;2023-06-10T01:30:58;99145.19;;;12.25;86.00
78986;BME280;68384;55.750;48.746;2023-06-10T01:32:07;99143.50;;;12.29;85.62
78986;BME280;68384;55.750;48.746;2023-06-10T01:33:18;99145.31;;;12.33;85.25
78986;BME280;68384;55.750;48.746;2023-06-10T01:34:31;99152.31;;;12.38;84.72
78986;BME280;68384;55.750;48.746;2023-06-10T01:35:36;99150.59;;;12.40;84.93
78986;BME280;68384;55.750;48.746;2023-06-10T01:36:46;99148.09;;;12.46;84.61
78986;BME280;68384;55.750;48.746;2023-06-10T01:37:53;99149.81;;;12.47;84.36
78986;BME280;68384;55.750;48.746;2023-06-10T01:38:59;99141.22;;;12.53;84.18
78986;BME280;68384;55.750;48.746;2023-06-10T01:40:04;99147.31;;;12.53;83.73
78986;BME280;68384;55.750;48.746;2023-06-10T01:41:09;99147.31;;;12.53;83.90
78986;BME280;68384;55.750;48.746;2023-06-10T01:42:14;99128.28;;;12.54;83.82
78986;BME280;68384;55.750;48.746;2023-06-10T01:43:20;99141.34;;;12.60;83.74
78986;BME280;68384;55.750;48.746;2023-06-10T01:44:23;99134.44;;;12.62;83.74
78986;BME280;68384;55.750;48.746;2023-06-10T01:45:27;99138.81;;;12.66;83.56
78986;BME280;68384;55.750;48.746;2023-06-10T01:46:30;99129.31;;;12.69;83.21
78986;BME280;68384;55.750;48.746;2023-06-10T01:47:34;99132.81;;;12.72;83.25
78986;BME280;68384;55.750;48.746;2023-06-10T01:48:37;99137.16;;;12.73;83.12
78986;BME280;68384;55.750;48.746;2023-06-10T01:49:41;99132.00;;;12.78;83.01
78986;BME280;68384;55.750;48.746;2023-06-10T01:50:44;99142.41;;;12.76;82.88
78986;BME280;68384;55.750;48.746;2023-06-10T01:51:48;99141.53;;;12.77;82.95
78986;BME280;68384;55.750;48.746;2023-06-10T01:52:52;99136.34;;;12.76;83.05
78986;BME280;68384;55.750;48.746;2023-06-10T01:53:56;99149.34;;;12.77;82.97
78986;BME280;68384;55.750;48.746;2023-06-10T01:54:59;99151.09;;;12.77;83.11
78986;BME280;68384;55.750;48.746;2023-06-10T01:56:04;99146.81;;;12.82;83.16
78986;BME280;68384;55.750;48.746;2023-06-10T01:57:07;99150.22;;;12.78;83.04
78986;BME280;68384;55.750;48.746;2023-06-10T01:58:12;99151.94;;;12.76;83.33
78986;BME280;68384;55.750;48.746;2023-06-10T01:59:15;99152.78;;;12.75;83.28
78986;BME280;68384;55.750;48.746;2023-06-10T02:00:19;99157.09;;;12.73;83.25
78986;BME280;68384;55.750;48.746;2023-06-10T02:01:21;99163.13;;;12.69;83.61
78986;BME280;68384;55.750;48.746;2023-06-10T02:02:25;99172.66;;;12.70;83.68
78986;BME280;68384;55.750;48.746;2023-06-10T02:03:28;99174.31;;;12.63;83.89
78986;BME280;68384;55.750;48.746;2023-06-10T02:04:32;99169.97;;;12.62;83.73
78986;BME280;68384;55.750;48.746;2023-06-10T02:05:37;99174.25;;;12.58;83.97
78986;BME280;68384;55.750;48.746;2023-06-10T02:06:41;99173.31;;;12.53;84.05
78986;BME280;68384;55.750;48.746;2023-06-10T02:07:44;99172.47;;;12.54;84.37
78986;BME280;68384;55.750;48.746;2023-06-10T02:08:49;99181.06;;;12.50;84.23
78986;BME280;68384;55.750;48.746;2023-06-10T02:09:52;99184.53;;;12.49;84.45
78986;BME280;68384;55.750;48.746;2023-06-10T02:10:56;99187.09;;;12.46;84.56
78986;BME280;68384;55.750;48.746;2023-06-10T02:11:59;99194.00;;;12.47;84.68
78986;BME280;68384;55.750;48.746;2023-06-10T02:13:02;99181.91;;;12.46;84.77
78986;BME280;68384;55.750;48.746;2023-06-10T02:14:06;99182.69;;;12.41;84.93
78986;BME280;68384;55.750;48.746;2023-06-10T02:15:10;99176.59;;;12.40;84.99
78986;BME280;68384;55.750;48.746;2023-06-10T02:16:13;99187.88;;;12.41;85.07
78986;BME280;68384;55.750;48.746;2023-06-10T02:17:19;99190.47;;;12.42;85.12
78986;BME280;68384;55.750;48.746;2023-06-10T02:18:42;99193.00;;;12.36;85.04
78986;BME280;68384;55.750;48.746;2023-06-10T02:19:46;99193.09;;;12.42;85.22
78986;BME280;68384;55.750;48.746;2023-06-10T02:20:56;99193.97;;;12.43;84.88
78986;BME280;68384;55.750;48.746;2023-06-10T02:22:01;99193.97;;;12.44;84.98
78986;BME280;68384;55.750;48.746;2023-06-10T02:23:04;99199.16;;;12.44;84.90
78986;BME280;68384;55.750;48.746;2023-06-10T02:24:09;99205.28;;;12.46;84.73
78986;BME280;68384;55.750;48.746;2023-06-10T02:25:12;99209.63;;;12.47;84.55
78986;BME280;68384;55.750;48.746;2023-06-10T02:26:16;99205.25;;;12.43;84.54
78986;BME280;68384;55.750;48.746;2023-06-10T02:27:19;99205.19;;;12.42;84.63
78986;BME280;68384;55.750;48.746;2023-06-10T02:28:23;99221.72;;;12.45;84.57
78986;BME280;68384;55.750;48.746;2023-06-10T02:29:26;99214.66;;;12.35;84.56
78986;BME280;68384;55.750;48.746;2023-06-10T02:30:30;99212.94;;;12.37;84.85
78986;BME280;68384;55.750;48.746;2023-06-10T02:31:33;99207.69;;;12.34;84.88
78986;BME280;68384;55.750;48.746;2023-06-10T02:32:39;99205.91;;;12.30;85.02
78986;BME280;68384;55.750;48.746;2023-06-10T02:33:43;99211.13;;;12.30;85.34
78986;BME280;68384;55.750;48.746;2023-06-10T02:34:47;99214.56;;;12.29;85.23
78986;BME280;68384;55.750;48.746;2023-06-10T02:35:51;99212.84;;;12.31;85.41
78986;BME280;68384;55.750;48.746;2023-06-10T02:36:56;99214.66;;;12.35;85.23
78986;BME280;68384;55.750;48.746;2023-06-10T02:37:59;99200.66;;;12.27;85.35
78986;BME280;68384;55.750;48.746;2023-06-10T02:39:04;99207.69;;;12.34;85.53
78986;BME280;68384;55.750;48.746;2023-06-10T02:40:10;99206.75;;;12.29;85.81
78986;BME280;68384;55.750;48.746;2023-06-10T02:41:15;99204.09;;;12.26;85.34
78986;BME280;68384;55.750;48.746;2023-06-10T02:42:18;99206.69;;;12.25;84.95
78986;BME280;68384;55.750;48.746;2023-06-10T02:43:23;99203.16;;;12.21;84.93
78986;BME280;68384;55.750;48.746;2023-06-10T02:44:26;99210.91;;;12.20;84.48
78986;BME280;68384;55.750;48.746;2023-06-10T02:45:30;99197.91;;;12.18;85.02
78986;BME280;68384;55.750;48.746;2023-06-10T02:46:34;99204.00;;;12.19;84.80
78986;BME280;68384;55.750;48.746;2023-06-10T02:47:40;99222.13;;;12.14;85.03
78986;BME280;68384;55.750;48.746;2023-06-10T02:48:46;99222.13;;;12.16;84.85
78986;BME280;68384;55.750;48.746;2023-06-10T02:49:55;99221.88;;;12.03;84.56
78986;BME280;68384;55.750;48.746;2023-06-10T02:50:58;99204.59;;;12.04;84.77
78986;BME280;68384;55.750;48.746;2023-06-10T02:52:08;99228.75;;;11.98;84.76
78986;BME280;68384;55.750;48.746;2023-06-10T02:53:14;99224.25;;;11.90;84.84
78986;BME280;68384;55.750;48.746;2023-06-10T02:54:22;99222.41;;;11.83;85.22
78986;BME280;68384;55.750;48.746;2023-06-10T02:55:28;99222.53;;;11.90;85.35
78986;BME280;68384;55.750;48.746;2023-06-10T02:56:36;99211.19;;;11.84;85.49
78986;BME280;68384;55.750;48.746;2023-06-10T02:57:42;99205.00;;;11.76;85.67
78986;BME280;68384;55.750;48.746;2023-06-10T02:58:46;99221.59;;;11.85;85.75
78986;BME280;68384;55.750;48.746;2023-06-10T02:59:51;99224.97;;;11.80;85.47
78986;BME280;68384;55.750;48.746;2023-06-10T03:00:56;99221.59;;;11.84;85.79
78986;BME280;68384;55.750;48.746;2023-06-10T03:02:03;99223.31;;;11.83;85.77
78986;BME280;68384;55.750;48.746;2023-06-10T03:03:13;99213.78;;;11.84;85.80
78986;BME280;68384;55.750;48.746;2023-06-10T03:04:44;99212.03;;;11.83;85.76
78986;BME280;68384;55.750;48.746;2023-06-10T03:05:51;99215.38;;;11.76;86.07
78986;BME280;68384;55.750;48.746;2023-06-10T03:06:56;99211.81;;;11.71;85.98
78986;BME280;68384;55.750;48.746;2023-06-10T03:08:05;99215.38;;;11.76;85.93
78986;BME280;68384;55.750;48.746;2023-06-10T03:09:11;99203.34;;;11.81;85.95
78986;BME280;68384;55.750;48.746;2023-06-10T03:10:18;99200.72;;;11.79;85.53
78986;BME280;68384;55.750;48.746;2023-06-10T03:11:22;99212.03;;;11.81;85.10
78986;BME280;68384;55.750;48.746;2023-06-10T03:12:28;99210.16;;;11.74;85.56
78986;BME280;68384;55.750;48.746;2023-06-10T03:13:31;99222.31;;;11.77;85.53
78986;BME280;68384;55.750;48.746;2023-06-10T03:14:35;99220.47;;;11.70;85.83
78986;BME280;68384;55.750;48.746;2023-06-10T03:15:38;99226.59;;;11.75;85.83
78986;BME280;68384;55.750;48.746;2023-06-10T03:16:47;99205.84;;;11.75;86.23
78986;BME280;68384;55.750;48.746;2023-06-10T03:17:50;99215.31;;;11.73;85.94
78986;BME280;68384;55.750;48.746;2023-06-10T03:18:54;99216.22;;;11.76;85.44
78986;BME280;68384;55.750;48.746;2023-06-10T03:19:57;99213.63;;;11.76;85.61
78986;BME280;68384;55.750;48.746;2023-06-10T03:21:04;99227.50;;;11.77;85.89
78986;BME280;68384;55.750;48.746;2023-06-10T03:22:08;99212.84;;;11.80;85.60
78986;BME280;68384;55.750;48.746;2023-06-10T03:23:22;99225.06;;;11.86;85.48
78986;BME280;68384;55.750;48.746;2023-06-10T03:24:25;99214.75;;;11.89;85.53
78986;BME280;68384;55.750;48.746;2023-06-10T03:25:29;99217.41;;;11.93;84.89
78986;BME280;68384;55.750;48.746;2023-06-10T03:26:34;99229.59;;;11.97;85.03
78986;BME280;68384;55.750;48.746;2023-06-10T03:27:38;99233.03;;;11.96;84.75
78986;BME280;68384;55.750;48.746;2023-06-10T03:28:42;99222.78;;;12.04;84.56
78986;BME280;68384;55.750;48.746;2023-06-10T03:29:46;99233.31;;;12.10;84.50
78986;BME280;68384;55.750;48.746;2023-06-10T03:30:50;99235.03;;;12.10;84.15
78986;BME280;68384;55.750;48.746;2023-06-10T03:31:57;99238.50;;;12.10;84.30
78986;BME280;68384;55.750;48.746;2023-06-10T03:33:00;99243.69;;;12.09;83.85
78986;BME280;68384;55.750;48.746;2023-06-10T03:34:04;99233.38;;;12.15;83.47
78986;BME280;68384;55.750;48.746;2023-06-10T03:35:08;99253.25;;;12.13;82.96
78986;BME280;68384;55.750;48.746;2023-06-10T03:36:12;99249.88;;;12.18;83.23
78986;BME280;68384;55.750;48.746;2023-06-10T03:37:17;99258.63;;;12.22;82.93
78986;BME280;68384;55.750;48.746;2023-06-10T03:38:22;99253.53;;;12.28;82.81
78986;BME280;68384;55.750;48.746;2023-06-10T03:39:26;99227.59;;;12.34;82.60
78986;BME280;68384;55.750;48.746;2023-06-10T03:40:33;99248.53;;;12.41;82.10
78986;BME280;68384;55.750;48.746;2023-06-10T03:41:39;99250.31;;;12.44;81.98
78986;BME280;68384;55.750;48.746;2023-06-10T03:42:42;99259.84;;;12.45;81.92
78986;BME280;68384;55.750;48.746;2023-06-10T03:43:49;99256.34;;;12.44;82.17
78986;BME280;68384;55.750;48.746;2023-06-10T03:44:53;99250.38;;;12.48;81.83
78986;BME280;68384;55.750;48.746;2023-06-10T03:45:57;99252.19;;;12.54;81.23
78986;BME280;68384;55.750;48.746;2023-06-10T03:47:00;99246.13;;;12.53;81.01
78986;BME280;68384;55.750;48.746;2023-06-10T03:48:05;99241.94;;;12.63;80.55
78986;BME280;68384;55.750;48.746;2023-06-10T03:49:18;99253.28;;;12.70;81.04
78986;BME280;68384;55.750;48.746;2023-06-10T03:50:23;99238.56;;;12.72;81.14
78986;BME280;68384;55.750;48.746;2023-06-10T03:51:26;99268.03;;;12.71;80.09
78986;BME280;68384;55.750;48.746;2023-06-10T03:52:30;99254.16;;;12.70;79.79
78986;BME280;68384;55.750;48.746;2023-06-10T03:53:34;99246.41;;;12.73;79.08
78986;BME280;68384;55.750;48.746;2023-06-10T03:54:38;99239.34;;;12.64;79.79
78986;BME280;68384;55.750;48.746;2023-06-10T03:55:40;99251.66;;;12.78;79.76
78986;BME280;68384;55.750;48.746;2023-06-10T03:56:46;99251.69;;;12.79;79.71
78986;BME280;68384;55.750;48.746;2023-06-10T03:57:50;99264.75;;;12.82;79.45
78986;BME280;68384;55.750;48.746;2023-06-10T03:58:54;99259.47;;;12.76;78.82
78986;BME280;68384;55.750;48.746;2023-06-10T03:59:58;99282.03;;;12.80;78.61
78986;BME280;68384;55.750;48.746;2023-06-10T04:01:01;99265.59;;;12.80;79.41
78986;BME280;68384;55.750;48.746;2023-06-10T04:02:09;99262.16;;;12.84;78.38
78986;BME280;68384;55.750;48.746;2023-06-10T04:03:12;99269.97;;;12.84;79.51
78986;BME280;68384;55.750;48.746;2023-06-10T04:04:24;99257.84;;;12.86;79.23
78986;BME280;68384;55.750;48.746;2023-06-10T04:05:28;99253.56;;;12.88;79.08
78986;BME280;68384;55.750;48.746;2023-06-10T04:06:32;99255.19;;;12.80;79.58
78986;BME280;68384;55.750;48.746;2023-06-10T04:07:36;99256.84;;;12.78;79.83
78986;BME280;68384;55.750;48.746;2023-06-10T04:08:39;99235.22;;;12.80;79.49
78986;BME280;68384;55.750;48.746;2023-06-10T04:09:43;99246.59;;;12.87;79.66
78986;BME280;68384;55.750;48.746;2023-06-10T04:10:46;99243.84;;;12.78;80.03
78986;BME280;68384;55.750;48.746;2023-06-10T04:11:52;99249.06;;;12.76;80.51
78986;BME280;68384;55.750;48.746;2023-06-10T04:12:55;99237.81;;;12.79;80.35
78986;BME280;68384;55.750;48.746;2023-06-10T04:14:02;99250.75;;;12.74;79.79
78986;BME280;68384;55.750;48.746;2023-06-10T04:15:06;99244.63;;;12.71;80.39
78986;BME280;68384;55.750;48.746;2023-06-10T04:16:11;99247.34;;;12.77;80.88
78986;BME280;68384;55.750;48.746;2023-06-10T04:17:15;99251.66;;;12.78;80.55
78986;BME280;68384;55.750;48.746;2023-06-10T04:18:19;99253.38;;;12.76;80.17
78986;BME280;68384;55.750;48.746;2023-06-10T04:19:22;99274.13;;;12.71;81.04
78986;BME280;68384;55.750;48.746;2023-06-10T04:20:26;99264.50;;;12.67;80.85
78986;BME280;68384;55.750;48.746;2023-06-10T04:21:29;99267.16;;;12.72;80.96
78986;BME280;68384;55.750;48.746;2023-06-10T04:22:33;99272.41;;;12.75;81.16
78986;BME280;68384;55.750;48.746;2023-06-10T04:23:36;99277.63;;;12.75;81.46
78986;BME280;68384;55.750;48.746;2023-06-10T04:24:41;99275.91;;;12.75;80.98
78986;BME280;68384;55.750;48.746;2023-06-10T04:25:44;99263.88;;;12.82;80.35
78986;BME280;68384;55.750;48.746;2023-06-10T04:26:49;99267.38;;;12.85;80.50
78986;BME280;68384;55.750;48.746;2023-06-10T04:27:54;99271.78;;;12.91;80.82
78986;BME280;68384;55.750;48.746;2023-06-10T04:28:58;99276.97;;;12.91;80.94
78986;BME280;68384;55.750;48.746;2023-06-10T04:30:01;99275.25;;;12.91;80.15
78986;BME280;68384;55.750;48.746;2023-06-10T04:31:07;99293.47;;;12.90;79.93
78986;BME280;68384;55.750;48.746;2023-06-10T04:32:10;99301.16;;;12.82;80.05
78986;BME280;68384;55.750;48.746;2023-06-10T04:33:14;99284.53;;;12.71;80.15
78986;BME280;68384;55.750;48.746;2023-06-10T04:34:17;99296.78;;;12.80;80.38
78986;BME280;68384;55.750;48.746;2023-06-10T04:35:21;99290.69;;;12.78;80.18
78986;BME280;68384;55.750;48.746;2023-06-10T04:36:24;99293.28;;;12.76;80.53
78986;BME280;68384;55.750;48.746;2023-06-10T04:37:28;99297.47;;;12.68;80.85
78986;BME280;68384;55.750;48.746;2023-06-10T04:38:31;99294.09;;;12.74;80.43
78986;BME280;68384;55.750;48.746;2023-06-10T04:39:36;99294.09;;;12.75;80.14
78986;BME280;68384;55.750;48.746;2023-06-10T04:40:42;99289.78;;;12.76;80.22
78986;BME280;68384;55.750;48.746;2023-06-10T04:41:48;99283.69;;;12.75;80.54
78986;BME280;68384;55.750;48.746;2023-06-10T04:42:51;99285.63;;;12.87;80.73
78986;BME280;68384;55.750;48.746;2023-06-10T04:43:57;99280.50;;;12.94;81.02
78986;BME280;68384;55.750;48.746;2023-06-10T04:45:00;99277.94;;;12.97;81.26
78986;BME280;68384;55.750;48.746;2023-06-10T04:46:05;99288.41;;;13.02;81.07
78986;BME280;68384;55.750;48.746;2023-06-10T04:47:11;99287.47;;;12.95;81.38
78986;BME280;68384;55.750;48.746;2023-06-10T04:48:15;99280.47;;;12.91;81.57
78986;BME280;68384;55.750;48.746;2023-06-10T04:49:17;99279.75;;;13.03;80.70
78986;BME280;68384;55.750;48.746;2023-06-10T04:50:21;99284.91;;;12.98;80.36
78986;BME280;68384;55.750;48.746;2023-06-10T04:51:24;99285.75;;;12.96;80.52
78986;BME280;68384;55.750;48.746;2023-06-10T04:52:28;99301.28;;;12.90;80.92
78986;BME280;68384;55.750;48.746;2023-06-10T04:53:31;99283.06;;;12.90;80.65
78986;BME280;68384;55.750;48.746;2023-06-10T04:54:35;99279.56;;;12.88;80.81
78986;BME280;68384;55.750;48.746;2023-06-10T04:55:38;99277.84;;;12.90;80.97
78986;BME280;68384;55.750;48.746;2023-06-10T04:56:42;99272.66;;;12.90;81.43
78986;BME280;68384;55.750;48.746;2023-06-10T04:57:44;99270.19;;;13.02;80.89
78986;BME280;68384;55.750;48.746;2023-06-10T04:58:50;99269.41;;;13.06;80.11
78986;BME280;68384;55.750;48.746;2023-06-10T04:59:55;99248.53;;;13.03;80.22
78986;BME280;68384;55.750;48.746;2023-06-10T05:00:59;99262.59;;;13.17;80.27
78986;BME280;68384;55.750;48.746;2023-06-10T05:02:02;99260.00;;;13.18;80.29
78986;BME280;68384;55.750;48.746;2023-06-10T05:03:06;99262.59;;;13.17;80.58
78986;BME280;68384;55.750;48.746;2023-06-10T05:04:09;99260.84;;;13.16;80.96
78986;BME280;68384;55.750;48.746;2023-06-10T05:05:13;99250.50;;;13.20;80.24
78986;BME280;68384;55.750;48.746;2023-06-10T05:06:16;99256.56;;;13.21;80.11
78986;BME280;68384;55.750;48.746;2023-06-10T05:07:20;99253.13;;;13.23;80.73
78986;BME280;68384;55.750;48.746;2023-06-10T05:08:22;99246.16;;;13.21;80.15
78986;BME280;68384;55.750;48.746;2023-06-10T05:09:26;99231.50;;;13.26;79.74
78986;BME280;68384;55.750;48.746;2023-06-10T05:10:29;99254.97;;;13.31;80.03
78986;BME280;68384;55.750;48.746;2023-06-10T05:11:36;99261.97;;;13.33;79.37
78986;BME280;68384;55.750;48.746;2023-06-10T05:12:39;99282.84;;;13.38;78.93
78986;BME280;68384;55.750;48.746;2023-06-10T05:13:43;99280.13;;;13.30;79.17
78986;BME280;68384;55.750;48.746;2023-06-10T05:14:46;99293.03;;;13.24;78.90
78986;BME280;68384;55.750;48.746;2023-06-10T05:15:52;99295.47;;;13.10;79.18
78986;BME280;68384;55.750;48.746;2023-06-10T05:16:55;99307.75;;;13.19;78.98
78986;BME280;68384;55.750;48.746;2023-06-10T05:17:59;99306.91;;;13.20;78.46
78986;BME280;68384;55.750;48.746;2023-06-10T05:19:02;99317.31;;;13.21;78.48
78986;BME280;68384;55.750;48.746;2023-06-10T05:20:10;99327.78;;;13.24;79.00
78986;BME280;68384;55.750;48.746;2023-06-10T05:21:13;99324.38;;;13.29;79.14
78986;BME280;68384;55.750;48.746;2023-06-10T05:22:18;99330.41;;;13.27;79.34
78986;BME280;68384;55.750;48.746;2023-06-10T05:23:20;99321.63;;;13.21;79.17
78986;BME280;68384;55.750;48.746;2023-06-10T05:24:25;99319.81;;;13.12;78.90
78986;BME280;68384;55.750;48.746;2023-06-10T05:25:30;99328.59;;;13.20;79.25
78986;BME280;68384;55.750;48.746;2023-06-10T05:26:35;99330.38;;;13.23;78.70
78986;BME280;68384;55.750;48.746;2023-06-10T05:27:39;99330.31;;;13.21;79.49
78986;BME280;68384;55.750;48.746;2023-06-10T05:28:45;99337.31;;;13.24;78.69
78986;BME280;68384;55.750;48.746;2023-06-10T05:29:48;99342.41;;;13.15;79.03
78986;BME280;68384;55.750;48.746;2023-06-10T05:30:53;99336.38;;;13.17;78.36
78986;BME280;68384;55.750;48.746;2023-06-10T05:31:57;99343.25;;;13.15;77.65
78986;BME280;68384;55.750;48.746;2023-06-10T05:33:02;99344.91;;;13.10;77.58
78986;BME280;68384;55.750;48.746;2023-06-10T05:34:06;99344.88;;;13.07;77.62
78986;BME280;68384;55.750;48.746;2023-06-10T05:35:09;99344.66;;;12.94;78.98
78986;BME280;68384;55.750;48.746;2023-06-10T05:36:13;99336.97;;;12.98;79.19
78986;BME280;68384;55.750;48.746;2023-06-10T05:37:16;99345.53;;;12.93;78.37
78986;BME280;68384;55.750;48.746;2023-06-10T05:38:20;99343.63;;;12.81;79.11
78986;BME280;68384;55.750;48.746;2023-06-10T05:39:23;99335.81;;;12.81;78.93